createdAt,value
2022-09-15T00:00:11.531Z,21.25
2022-09-15T00:03:14.073Z,21.22
2022-09-15T00:06:16.452Z,21.18
2022-09-15T00:09:18.757Z,21.14
2022-09-15T00:12:20.718Z,21.07
2022-09-15T00:15:23.138Z,21.01
2022-09-15T00:18:25.405Z,20.95
2022-09-15T00:21:32.021Z,20.87
2022-09-15T00:24:34.021Z,20.84
2022-09-15T00:27:36.640Z,20.81
2022-09-15T00:30:47.435Z,20.81
2022-09-15T00:33:50.744Z,20.65
2022-09-15T00:36:52.681Z,20.65
2022-09-15T00:39:55.111Z,20.60
2022-09-15T00:42:57.191Z,20.60
2022-09-15T00:45:59.491Z,20.62
2022-09-15T00:49:09.537Z,20.63
2022-09-15T00:52:17.292Z,20.64
2022-09-15T00:55:22.541Z,20.66
2022-09-15T00:58:30.800Z,20.63
2022-09-15T01:01:33.067Z,20.64
2022-09-15T01:04:35.563Z,20.65
2022-09-15T01:07:43.270Z,20.66
2022-09-15T01:10:46.761Z,20.67
2022-09-15T01:13:48.749Z,20.66
2022-09-15T01:17:04.375Z,20.65
2022-09-15T01:20:16.337Z,20.63
2022-09-15T01:23:42.743Z,20.59
2022-09-15T01:26:50.578Z,20.55
2022-09-15T01:29:58.592Z,20.53
2022-09-15T01:33:10.717Z,20.55
2022-09-15T01:36:24.288Z,20.56
2022-09-15T01:39:29.593Z,20.58
2022-09-15T01:42:32.505Z,20.62
2022-09-15T01:45:35.692Z,20.65
2022-09-15T01:48:39.844Z,20.67
2022-09-15T01:51:43.140Z,20.70
2022-09-15T01:54:49.127Z,20.71
2022-09-15T01:57:51.600Z,20.73
2022-09-15T02:00:57.795Z,20.77
2022-09-15T02:04:03.098Z,20.76
2022-09-15T02:07:31.953Z,20.74
2022-09-15T02:10:34.187Z,20.76
2022-09-15T02:13:42.859Z,20.77
2022-09-15T02:16:48.148Z,20.76
2022-09-15T02:19:53.959Z,20.75
2022-09-15T02:22:57.304Z,20.75
2022-09-15T02:26:06.324Z,20.73
2022-09-15T02:29:10.863Z,20.72
2022-09-15T02:32:13.850Z,20.69
2022-09-15T02:35:16.959Z,20.65
2022-09-15T02:38:18.952Z,20.60
2022-09-15T02:41:21.265Z,20.59
2022-09-15T02:44:23.430Z,20.58
2022-09-15T02:47:25.895Z,20.58
2022-09-15T02:50:27.918Z,20.58
2022-09-15T02:53:30.181Z,20.57
2022-09-15T02:56:32.171Z,20.56
2022-09-15T02:59:53.186Z,20.57
2022-09-15T03:02:57.714Z,20.57
2022-09-15T03:06:16.541Z,20.58
2022-09-15T03:09:21.380Z,20.57
2022-09-15T03:12:24.543Z,20.57
2022-09-15T03:15:27.221Z,20.57
2022-09-15T03:18:29.460Z,20.58
2022-09-15T03:21:31.533Z,20.53
2022-09-15T03:24:35.023Z,20.53
2022-09-15T03:27:37.058Z,20.55
2022-09-15T03:30:39.373Z,20.55
2022-09-15T03:33:41.521Z,20.57
2022-09-15T03:36:43.823Z,20.55
2022-09-15T03:39:47.150Z,20.55
2022-09-15T03:42:52.298Z,20.51
2022-09-15T03:45:57.580Z,20.51
2022-09-15T03:48:59.876Z,20.49
2022-09-15T03:52:02.128Z,20.46
2022-09-15T03:55:04.527Z,20.42
2022-09-15T03:58:09.748Z,20.36
2022-09-15T04:01:15.191Z,20.29
2022-09-15T04:04:19.545Z,20.25
2022-09-15T04:07:23.742Z,20.19
2022-09-15T04:10:29.378Z,20.15
2022-09-15T04:13:36.957Z,20.17
2022-09-15T04:16:39.467Z,20.22
2022-09-15T04:19:41.632Z,20.26
2022-09-15T04:22:44.674Z,20.30
2022-09-15T04:26:00.079Z,20.34
2022-09-15T04:29:04.686Z,20.36
2022-09-15T04:32:07.809Z,20.39
2022-09-15T04:35:10.389Z,20.41
2022-09-15T04:38:12.449Z,20.42
2022-09-15T04:41:15.033Z,20.43
2022-09-15T04:44:17.226Z,20.42
2022-09-15T04:47:19.556Z,20.44
2022-09-15T04:50:22.505Z,20.45
2022-09-15T04:53:24.776Z,20.45
2022-09-15T04:56:27.318Z,20.45
2022-09-15T04:59:29.902Z,20.46
2022-09-15T05:02:32.888Z,20.47
2022-09-15T05:05:35.158Z,20.46
2022-09-15T05:08:38.931Z,20.51
2022-09-15T05:11:41.303Z,20.53
2022-09-15T05:14:43.302Z,20.50
2022-09-15T05:17:45.752Z,20.48
2022-09-15T05:20:47.723Z,20.43
2022-09-15T05:23:51.983Z,20.44
2022-09-15T05:26:54.229Z,20.42
2022-09-15T05:30:09.959Z,20.42
2022-09-15T05:33:19.128Z,20.42
2022-09-15T05:36:24.981Z,20.43
2022-09-15T05:39:27.106Z,20.44
2022-09-15T05:42:30.003Z,20.43
2022-09-15T05:45:32.721Z,20.38
2022-09-15T05:48:36.158Z,20.36
2022-09-15T05:51:38.135Z,20.42
2022-09-15T05:54:40.476Z,20.45
2022-09-15T05:57:42.479Z,20.53
2022-09-15T06:00:44.757Z,20.51
2022-09-15T06:03:48.162Z,20.55
2022-09-15T06:06:50.149Z,20.56
2022-09-15T06:09:52.428Z,20.58
2022-09-15T06:12:55.072Z,20.58
2022-09-15T06:16:05.448Z,20.64
2022-09-15T06:19:07.674Z,20.65
2022-09-15T06:22:09.940Z,20.68
2022-09-15T06:25:13.203Z,20.75
2022-09-15T06:28:15.711Z,20.82
2022-09-15T06:31:18.397Z,20.92
2022-09-15T06:34:20.966Z,21.02
2022-09-15T06:37:22.986Z,21.10
2022-09-15T06:40:25.901Z,21.18
2022-09-15T06:43:28.044Z,21.18
2022-09-15T06:46:30.399Z,21.21
2022-09-15T06:49:32.403Z,21.23
2022-09-15T06:52:35.057Z,21.30
2022-09-15T06:55:37.077Z,21.31
2022-09-15T06:58:40.514Z,21.39
2022-09-15T07:01:43.121Z,21.45
2022-09-15T07:04:45.467Z,21.50
2022-09-15T07:07:47.961Z,21.55
2022-09-15T07:10:50.247Z,21.47
2022-09-15T07:13:52.517Z,21.53
2022-09-15T07:16:54.791Z,21.55
2022-09-15T07:19:57.281Z,21.64
2022-09-15T07:22:59.509Z,21.88
2022-09-15T07:26:05.492Z,22.00
2022-09-15T07:29:07.810Z,22.02
2022-09-15T07:32:09.986Z,22.15
2022-09-15T07:35:12.638Z,22.59
2022-09-15T07:38:14.617Z,23.03
2022-09-15T07:41:18.800Z,23.59
2022-09-15T07:44:20.863Z,24.06
2022-09-15T07:47:23.249Z,24.58
2022-09-15T07:50:25.314Z,24.95
2022-09-15T07:53:28.245Z,25.29
2022-09-15T07:56:30.270Z,25.34
2022-09-15T07:59:32.923Z,25.51
2022-09-15T08:02:34.929Z,25.78
2022-09-15T08:05:40.286Z,25.90
2022-09-15T08:08:44.491Z,25.85
2022-09-15T08:11:46.778Z,25.82
2022-09-15T08:14:50.298Z,25.86
2022-09-15T08:17:52.556Z,26.19
2022-09-15T08:20:54.606Z,26.87
2022-09-15T08:23:58.179Z,27.31
2022-09-15T08:27:00.166Z,27.78
2022-09-15T08:30:02.473Z,27.80
2022-09-15T08:33:05.487Z,27.91
2022-09-15T08:36:10.914Z,28.07
2022-09-15T08:39:12.997Z,28.18
2022-09-15T08:42:16.563Z,28.60
2022-09-15T08:45:22.519Z,28.89
2022-09-15T08:48:27.426Z,29.02
2022-09-15T08:51:32.408Z,29.11
2022-09-15T08:54:34.687Z,29.45
2022-09-15T08:57:36.878Z,29.36
2022-09-15T09:00:39.875Z,30.00
2022-09-15T09:03:48.607Z,30.36
2022-09-15T09:06:59.923Z,30.14
2022-09-15T09:10:10.810Z,30.34
2022-09-15T09:13:37.349Z,30.81
2022-09-15T09:16:58.159Z,30.98
2022-09-15T09:20:09.843Z,31.56
2022-09-15T09:23:15.867Z,31.82
2022-09-15T09:26:18.395Z,31.31
2022-09-15T09:29:26.924Z,31.16
2022-09-15T09:32:49.490Z,31.47
2022-09-15T09:35:52.318Z,31.25
2022-09-15T09:38:55.727Z,31.10
2022-09-15T09:41:59.167Z,30.52
2022-09-15T09:45:01.617Z,30.20
2022-09-15T09:48:13.526Z,29.91
2022-09-15T09:51:32.794Z,29.50
2022-09-15T09:54:35.655Z,28.90
2022-09-15T09:57:40.681Z,29.15
2022-09-15T10:00:43.068Z,29.08
2022-09-15T10:03:45.956Z,29.24
2022-09-15T10:06:48.815Z,29.22
2022-09-15T10:10:01.120Z,29.33
2022-09-15T10:13:03.602Z,29.17
2022-09-15T10:16:06.675Z,29.01
2022-09-15T10:19:12.277Z,28.82
2022-09-15T10:22:30.013Z,28.58
2022-09-15T10:25:55.018Z,28.50
2022-09-15T10:29:08.898Z,28.39
2022-09-15T10:32:24.956Z,28.39
2022-09-15T10:35:32.781Z,27.98
2022-09-15T10:38:37.538Z,27.55
2022-09-15T10:41:46.319Z,27.38
2022-09-15T10:45:03.869Z,27.12
2022-09-15T10:48:18.634Z,26.90
2022-09-15T10:51:39.500Z,27.02
2022-09-15T10:54:51.143Z,27.14
2022-09-15T10:58:02.535Z,27.13
2022-09-15T11:01:28.371Z,27.17
2022-09-15T11:04:33.260Z,27.13
2022-09-15T11:07:46.454Z,27.04
2022-09-15T11:11:09.179Z,27.04
2022-09-15T11:14:26.759Z,26.95
2022-09-15T11:17:31.754Z,27.01
2022-09-15T11:20:39.220Z,26.88
2022-09-15T11:23:48.317Z,26.69
2022-09-15T11:26:56.847Z,26.58
2022-09-15T11:30:04.393Z,26.51
2022-09-15T11:33:19.168Z,26.17
2022-09-15T11:36:35.398Z,26.04
2022-09-15T11:39:44.852Z,25.86
2022-09-15T11:42:52.871Z,25.77
2022-09-15T11:45:56.483Z,25.70
2022-09-15T11:49:05.188Z,25.62
2022-09-15T11:52:35.016Z,25.43
2022-09-15T12:07:22.933Z,25.76
2022-09-15T12:10:51.944Z,25.76
2022-09-15T12:45:31.055Z,25.34
2022-09-15T12:48:35.723Z,25.41
2022-09-15T12:51:37.896Z,25.36
2022-09-15T12:54:42.102Z,25.16
2022-09-15T12:57:50.440Z,25.19
2022-09-15T13:01:18.060Z,25.11
2022-09-15T13:04:26.542Z,25.04
2022-09-15T13:07:33.485Z,24.90
2022-09-15T13:10:37.013Z,24.68
2022-09-15T13:13:45.432Z,24.24
2022-09-15T13:17:03.811Z,22.12
2022-09-15T13:20:15.190Z,20.73
2022-09-15T13:23:19.279Z,19.75
2022-09-15T13:26:24.098Z,19.30
2022-09-15T13:29:28.933Z,19.08
2022-09-15T13:32:50.583Z,19.00
2022-09-15T13:35:52.557Z,18.96
2022-09-15T13:38:57.922Z,18.89
2022-09-15T13:42:18.383Z,18.89
2022-09-15T13:45:33.952Z,18.89
2022-09-15T13:48:42.024Z,18.95
2022-09-15T13:51:53.219Z,19.02
2022-09-15T13:55:14.033Z,19.10
2022-09-15T14:01:42.170Z,19.21
2022-09-15T14:04:51.874Z,19.25
2022-09-15T14:08:01.250Z,19.28
2022-09-15T14:11:09.150Z,19.37
2022-09-15T14:14:21.253Z,19.43
2022-09-15T14:17:28.714Z,19.47
2022-09-15T14:20:32.561Z,19.50
2022-09-15T14:23:43.584Z,19.53
2022-09-15T14:26:45.652Z,19.55
2022-09-15T14:29:50.214Z,19.54
2022-09-15T14:32:54.448Z,19.54
2022-09-15T14:35:56.672Z,19.56
2022-09-15T14:39:11.068Z,19.56
2022-09-15T14:42:22.978Z,19.54
2022-09-15T14:45:58.338Z,19.27
2022-09-15T14:49:09.063Z,19.06
2022-09-15T14:52:32.933Z,19.03
2022-09-15T14:55:55.660Z,18.94
2022-09-15T14:58:59.767Z,18.90
2022-09-15T15:02:17.823Z,18.85
2022-09-15T15:05:23.216Z,18.88
2022-09-15T15:08:45.826Z,18.95
2022-09-15T15:11:54.848Z,19.06
2022-09-15T15:14:58.727Z,19.15
2022-09-15T15:18:00.868Z,19.20
2022-09-15T15:21:03.961Z,19.24
2022-09-15T15:24:16.354Z,19.28
2022-09-15T15:27:24.418Z,19.31
2022-09-15T15:30:32.121Z,19.34
2022-09-15T15:33:34.482Z,19.34
2022-09-15T15:36:36.586Z,19.34
2022-09-15T15:39:38.912Z,19.37
2022-09-15T15:42:57.824Z,19.33
2022-09-15T15:46:03.667Z,19.29
2022-09-15T15:49:09.619Z,19.22
2022-09-15T15:52:11.898Z,19.22
2022-09-15T15:55:15.666Z,19.19
2022-09-15T15:58:17.933Z,19.16
2022-09-15T16:01:21.543Z,19.12
2022-09-15T16:04:23.840Z,19.10
2022-09-15T16:07:29.908Z,18.95
2022-09-15T16:10:38.695Z,18.98
2022-09-15T16:13:41.768Z,19.02
2022-09-15T16:16:44.649Z,18.92
2022-09-15T16:19:46.830Z,18.87
2022-09-15T16:22:49.105Z,18.90
2022-09-15T16:25:54.287Z,18.87
2022-09-15T16:28:56.628Z,18.91
2022-09-15T16:31:58.871Z,18.95
2022-09-15T16:35:01.131Z,18.99
2022-09-15T16:38:03.165Z,19.03
2022-09-15T16:41:16.015Z,19.07
2022-09-15T16:44:19.119Z,19.03
2022-09-15T16:47:45.715Z,18.98
2022-09-15T16:51:16.887Z,19.00
2022-09-15T16:54:15.345Z,19.01
2022-09-15T16:57:19.450Z,19.01
2022-09-15T17:00:21.752Z,19.04
2022-09-15T17:03:24.739Z,19.04
2022-09-15T17:06:27.164Z,19.04
2022-09-15T17:09:29.187Z,19.04
2022-09-15T17:12:31.732Z,18.98
2022-09-15T17:15:35.395Z,18.96
2022-09-15T17:18:37.774Z,18.95
2022-09-15T17:21:40.267Z,18.95
2022-09-15T17:24:42.526Z,18.96
2022-09-15T17:27:44.586Z,18.96
2022-09-15T17:30:48.925Z,18.96
2022-09-15T17:33:51.841Z,18.98
2022-09-15T17:36:54.123Z,18.98
2022-09-15T17:39:59.063Z,18.98
2022-09-15T17:43:02.089Z,18.96
2022-09-15T17:46:04.222Z,18.96
2022-09-15T17:49:06.781Z,18.95
2022-09-15T17:52:08.959Z,18.92
2022-09-15T17:55:16.256Z,18.89
2022-09-15T17:58:18.656Z,18.90
2022-09-15T18:01:21.009Z,18.91
2022-09-15T18:04:23.351Z,18.92
2022-09-15T18:07:25.325Z,18.92
2022-09-15T18:10:30.379Z,18.92
2022-09-15T18:13:33.497Z,18.90
2022-09-15T18:16:35.798Z,18.91
2022-09-15T18:19:37.852Z,18.91
2022-09-15T18:22:40.459Z,18.90
2022-09-15T18:25:42.727Z,18.90
2022-09-15T18:28:45.076Z,18.90
2022-09-15T18:31:47.155Z,18.91
2022-09-15T18:34:49.484Z,18.90
2022-09-15T18:37:56.033Z,18.91
2022-09-15T18:41:00.203Z,18.91
2022-09-15T18:44:03.038Z,18.90
2022-09-15T18:47:06.326Z,18.88
2022-09-15T18:50:09.701Z,18.85
2022-09-15T18:53:14.093Z,18.82
2022-09-15T18:56:16.440Z,18.76
2022-09-15T18:59:19.329Z,18.75
2022-09-15T19:02:21.454Z,18.74
2022-09-15T19:05:24.192Z,18.73
2022-09-15T19:08:26.155Z,18.71
2022-09-15T19:11:29.336Z,18.64
2022-09-15T19:14:34.137Z,18.64
2022-09-15T19:17:36.702Z,18.61
2022-09-15T19:20:40.222Z,18.62
2022-09-15T19:23:43.609Z,18.62
2022-09-15T19:26:47.223Z,18.62
2022-09-15T19:29:49.593Z,18.63
2022-09-15T19:32:51.595Z,18.63
2022-09-15T19:36:10.872Z,18.62
2022-09-15T19:39:16.278Z,18.63
2022-09-15T19:42:18.604Z,18.63
2022-09-15T19:45:23.307Z,18.66
2022-09-15T19:48:25.710Z,18.68
2022-09-15T19:51:27.852Z,18.70
2022-09-15T19:54:30.571Z,18.71
2022-09-15T19:57:32.602Z,18.70
2022-09-15T20:00:35.299Z,18.68
2022-09-15T20:03:37.902Z,18.67
2022-09-15T20:06:42.413Z,18.66
2022-09-15T20:09:44.811Z,18.66
2022-09-15T20:13:29.989Z,18.67
2022-09-15T20:16:45.751Z,18.68
2022-09-15T20:19:47.816Z,18.70
2022-09-15T20:22:50.127Z,18.72
2022-09-15T20:25:59.485Z,18.75
2022-09-15T20:29:02.295Z,18.74
2022-09-15T20:32:04.421Z,18.75
2022-09-15T20:35:07.738Z,18.76
2022-09-15T20:38:09.737Z,18.76
2022-09-15T20:41:12.868Z,18.78
2022-09-15T20:44:14.950Z,18.78
2022-09-15T20:47:17.597Z,18.78
2022-09-15T20:50:20.111Z,18.77
2022-09-15T20:53:28.298Z,18.74
2022-09-15T20:56:31.651Z,18.75
2022-09-15T20:59:33.907Z,18.74
2022-09-15T21:02:36.239Z,18.74
2022-09-15T21:05:38.613Z,18.74
2022-09-15T21:08:40.623Z,18.74
2022-09-15T21:11:43.472Z,18.75
2022-09-15T21:14:45.502Z,18.75
2022-09-15T21:17:47.804Z,18.75
2022-09-15T21:20:54.229Z,18.75
2022-09-15T21:23:58.653Z,18.76
2022-09-15T21:27:19.408Z,18.76
2022-09-15T21:30:21.738Z,18.75
2022-09-15T21:33:23.732Z,18.77
2022-09-15T21:36:27.631Z,18.76
2022-09-15T21:39:29.679Z,18.77
2022-09-15T21:42:31.934Z,18.76
2022-09-15T21:45:33.932Z,18.77
2022-09-15T21:48:36.259Z,18.76
2022-09-15T21:51:38.217Z,18.72
2022-09-15T21:54:40.665Z,18.73
2022-09-15T21:57:42.632Z,18.71
2022-09-15T22:00:45.501Z,18.69
2022-09-15T22:03:49.799Z,18.67
2022-09-15T22:06:52.900Z,18.64
2022-09-15T22:09:57.183Z,18.62
2022-09-15T22:12:59.160Z,18.61
2022-09-15T22:16:05.731Z,18.57
2022-09-15T22:19:09.688Z,18.57
2022-09-15T22:22:12.010Z,18.57
2022-09-15T22:25:19.802Z,18.54
2022-09-15T22:28:24.044Z,18.51
2022-09-15T22:31:27.519Z,18.52
2022-09-15T22:34:32.567Z,18.50
2022-09-15T22:37:35.637Z,18.49
2022-09-15T22:40:37.982Z,18.48
2022-09-15T22:43:40.792Z,18.49
2022-09-15T22:46:44.150Z,18.49
2022-09-15T22:49:46.164Z,18.50
2022-09-15T22:52:48.392Z,18.49
2022-09-15T22:55:50.611Z,18.47
2022-09-15T22:58:52.977Z,18.48
2022-09-15T23:01:55.222Z,18.46
2022-09-15T23:04:57.578Z,18.46
2022-09-15T23:07:59.553Z,18.44
2022-09-15T23:11:13.231Z,18.43
2022-09-15T23:14:16.866Z,18.42
2022-09-15T23:17:19.621Z,18.40
2022-09-15T23:20:21.662Z,18.39
2022-09-15T23:23:24.054Z,18.36
2022-09-15T23:26:26.767Z,18.35
2022-09-15T23:29:29.038Z,18.34
2022-09-15T23:32:30.999Z,18.32
2022-09-15T23:35:33.260Z,18.31
2022-09-15T23:38:36.186Z,18.31
2022-09-15T23:41:39.268Z,18.29
2022-09-15T23:44:41.252Z,18.24
2022-09-15T23:47:43.499Z,18.23
2022-09-15T23:50:45.809Z,18.21
2022-09-15T23:53:48.185Z,18.20
2022-09-15T23:56:50.150Z,18.20
2022-09-15T23:59:52.497Z,18.17
